createdAt,value
2019-01-19T00:00:35.646Z,8.00
2019-01-19T00:01:35.631Z,8.00
2019-01-19T00:02:35.618Z,8.00
2019-01-19T00:03:35.607Z,8.00
2019-01-19T00:04:35.593Z,8.00
2019-01-19T00:05:35.579Z,8.00
2019-01-19T00:06:35.570Z,8.00
2019-01-19T00:07:35.554Z,8.00
2019-01-19T00:08:35.537Z,8.00
2019-01-19T00:09:35.528Z,8.00
2019-01-19T00:10:35.513Z,8.00
2019-01-19T00:11:35.512Z,8.00
2019-01-19T00:12:35.489Z,8.00
2019-01-19T00:13:35.477Z,8.00
2019-01-19T00:14:35.460Z,8.00
2019-01-19T00:15:35.450Z,8.00
2019-01-19T00:16:35.433Z,8.00
2019-01-19T00:17:35.427Z,8.00
2019-01-19T00:18:35.406Z,8.00
2019-01-19T00:19:35.396Z,8.00
2019-01-19T00:20:35.380Z,8.00
2019-01-19T00:21:35.373Z,8.00
2019-01-19T00:22:35.356Z,8.00
2019-01-19T00:23:35.343Z,8.00
2019-01-19T00:24:35.327Z,8.00
2019-01-19T00:25:35.314Z,8.00
2019-01-19T00:26:35.303Z,8.00
2019-01-19T00:27:35.286Z,8.00
2019-01-19T00:28:35.276Z,8.00
2019-01-19T00:29:35.280Z,8.00
2019-01-19T00:30:35.246Z,8.00
2019-01-19T00:31:35.235Z,8.00
2019-01-19T00:32:35.221Z,8.00
2019-01-19T00:33:35.209Z,8.00
2019-01-19T00:34:35.197Z,8.00
2019-01-19T00:35:35.182Z,8.00
2019-01-19T00:36:35.166Z,8.00
2019-01-19T00:37:35.153Z,8.00
2019-01-19T00:38:35.140Z,8.00
2019-01-19T00:39:35.128Z,8.00
2019-01-19T00:40:35.114Z,8.00
2019-01-19T00:41:35.100Z,8.00
2019-01-19T00:42:35.088Z,8.00
2019-01-19T00:43:35.079Z,8.00
2019-01-19T00:44:35.059Z,8.00
2019-01-19T00:45:35.050Z,8.00
2019-01-19T00:46:35.033Z,8.00
2019-01-19T00:47:35.023Z,8.00
2019-01-19T00:48:35.007Z,8.00
2019-01-19T00:49:34.994Z,8.00
2019-01-19T00:50:34.979Z,8.00
2019-01-19T00:51:34.967Z,8.00
2019-01-19T00:52:34.952Z,8.00
2019-01-19T00:53:34.939Z,8.00
2019-01-19T00:54:34.927Z,8.00
2019-01-19T00:55:34.914Z,8.00
2019-01-19T00:56:34.901Z,8.00
2019-01-19T00:57:34.889Z,8.00
2019-01-19T00:58:34.871Z,8.00
2019-01-19T00:59:34.860Z,8.00
2019-01-19T01:00:34.844Z,8.00
2019-01-19T01:01:34.835Z,8.00
2019-01-19T01:02:34.823Z,8.00
2019-01-19T01:03:34.809Z,8.00
2019-01-19T01:04:34.797Z,8.00
2019-01-19T01:05:34.782Z,8.00
2019-01-19T01:06:34.768Z,8.00
2019-01-19T01:07:34.753Z,8.00
2019-01-19T01:08:34.736Z,8.00
2019-01-19T01:09:34.727Z,8.00
2019-01-19T01:10:34.716Z,8.00
2019-01-19T01:11:34.700Z,8.00
2019-01-19T01:12:34.684Z,8.00
2019-01-19T01:13:34.677Z,8.00
2019-01-19T01:14:34.660Z,8.00
2019-01-19T01:15:34.649Z,8.00
2019-01-19T01:16:34.631Z,8.00
2019-01-19T01:17:34.618Z,8.00
2019-01-19T01:18:34.605Z,8.00
2019-01-19T01:19:34.597Z,8.00
2019-01-19T01:20:34.581Z,8.00
2019-01-19T01:21:34.564Z,8.00
2019-01-19T01:22:34.552Z,8.00
2019-01-19T01:23:34.545Z,8.00
2019-01-19T01:24:34.525Z,8.00
2019-01-19T01:25:34.512Z,8.00
2019-01-19T01:26:34.499Z,8.00
2019-01-19T01:27:34.486Z,8.00
2019-01-19T01:28:34.470Z,8.00
2019-01-19T01:29:34.456Z,8.00
2019-01-19T01:30:34.443Z,8.00
2019-01-19T01:31:34.431Z,8.00
2019-01-19T01:32:34.416Z,8.00
2019-01-19T01:33:34.405Z,8.00
2019-01-19T01:34:34.398Z,8.00
2019-01-19T01:35:34.377Z,8.00
2019-01-19T01:36:34.363Z,8.00
2019-01-19T01:37:34.348Z,8.00
2019-01-19T01:38:34.339Z,8.00
2019-01-19T01:39:34.328Z,8.00
2019-01-19T01:40:34.310Z,8.00
2019-01-19T01:41:34.296Z,8.00
2019-01-19T01:42:34.284Z,8.00
2019-01-19T01:43:34.273Z,8.00
2019-01-19T01:44:34.275Z,8.00
2019-01-19T01:45:34.243Z,8.00
2019-01-19T01:46:34.231Z,8.00
2019-01-19T01:47:34.216Z,8.00
2019-01-19T01:48:34.202Z,8.00
2019-01-19T01:49:34.195Z,8.00
2019-01-19T01:50:34.177Z,8.00
2019-01-19T01:51:34.163Z,8.00
2019-01-19T01:52:34.149Z,8.00
2019-01-19T01:53:34.135Z,8.00
2019-01-19T01:54:34.122Z,8.00
2019-01-19T01:55:34.106Z,8.00
2019-01-19T01:56:34.092Z,8.00
2019-01-19T01:57:34.079Z,8.00
2019-01-19T01:58:34.067Z,8.00
2019-01-19T01:59:34.055Z,8.00
2019-01-19T02:00:34.037Z,8.00
2019-01-19T02:01:34.031Z,8.00
2019-01-19T02:02:34.013Z,8.00
2019-01-19T02:03:33.998Z,8.00
2019-01-19T02:04:33.983Z,8.00
2019-01-19T02:05:40.240Z,8.00
2019-01-19T02:06:33.962Z,8.00
2019-01-19T02:07:33.947Z,8.00
2019-01-19T02:08:33.929Z,8.00
2019-01-19T02:09:33.916Z,8.00
2019-01-19T02:10:33.904Z,8.00
2019-01-19T02:11:33.890Z,8.00
2019-01-19T02:12:33.883Z,8.00
2019-01-19T02:13:33.861Z,8.00
2019-01-19T02:14:33.852Z,8.00
2019-01-19T02:15:33.836Z,8.00
2019-01-19T02:16:33.819Z,8.00
2019-01-19T02:17:33.808Z,8.00
2019-01-19T02:18:33.793Z,8.00
2019-01-19T02:19:33.785Z,8.00
2019-01-19T02:20:33.775Z,8.00
2019-01-19T02:21:33.754Z,8.00
2019-01-19T02:22:33.738Z,8.00
2019-01-19T02:23:33.725Z,8.00
2019-01-19T02:24:33.712Z,8.00
2019-01-19T02:25:33.700Z,8.00
2019-01-19T02:26:33.683Z,8.00
2019-01-19T02:27:33.669Z,8.00
2019-01-19T02:28:33.658Z,8.00
2019-01-19T02:29:33.645Z,8.00
2019-01-19T02:30:33.631Z,8.00
2019-01-19T02:31:33.622Z,8.00
2019-01-19T02:32:33.601Z,8.00
2019-01-19T02:33:33.590Z,8.00
2019-01-19T02:34:33.579Z,8.00
2019-01-19T02:35:33.564Z,8.00
2019-01-19T02:36:33.546Z,8.00
2019-01-19T02:37:33.533Z,8.00
2019-01-19T02:38:33.522Z,8.00
2019-01-19T02:39:33.506Z,8.00
2019-01-19T02:40:33.496Z,8.00
2019-01-19T02:41:33.480Z,8.00
2019-01-19T02:42:33.464Z,8.00
2019-01-19T02:43:33.458Z,8.00
2019-01-19T02:44:33.437Z,8.00
2019-01-19T02:45:33.424Z,8.00
2019-01-19T02:46:33.411Z,8.00
2019-01-19T02:47:33.397Z,8.00
2019-01-19T02:48:33.385Z,8.00
2019-01-19T02:49:33.370Z,8.00
2019-01-19T02:50:33.359Z,8.00
2019-01-19T02:51:33.343Z,8.00
2019-01-19T02:52:33.345Z,8.00
2019-01-19T02:53:33.315Z,8.00
2019-01-19T02:54:33.302Z,8.00
2019-01-19T02:55:33.287Z,8.00
2019-01-19T02:56:33.275Z,8.00
2019-01-19T02:57:33.261Z,8.00
2019-01-19T02:58:33.249Z,8.00
2019-01-19T02:59:33.236Z,8.00
2019-01-19T03:00:33.224Z,8.00
2019-01-19T03:01:33.205Z,8.00
2019-01-19T03:02:33.194Z,8.00
2019-01-19T03:03:33.178Z,8.00
2019-01-19T03:04:33.168Z,8.00
2019-01-19T03:05:33.151Z,8.00
2019-01-19T03:06:33.143Z,8.00
2019-01-19T03:07:33.123Z,8.00
2019-01-19T03:08:33.110Z,8.00
2019-01-19T03:09:33.098Z,8.00
2019-01-19T03:10:33.086Z,8.00
2019-01-19T03:11:33.077Z,8.00
2019-01-19T03:12:33.056Z,8.00
2019-01-19T03:13:33.044Z,8.00
2019-01-19T03:14:33.029Z,8.00
2019-01-19T03:15:33.113Z,8.00
2019-01-19T03:16:33.007Z,8.00
2019-01-19T03:17:32.988Z,8.00
2019-01-19T03:18:32.975Z,8.00
2019-01-19T03:19:32.963Z,8.00
2019-01-19T03:20:32.946Z,8.00
2019-01-19T03:21:32.933Z,8.00
2019-01-19T03:22:32.919Z,8.00
2019-01-19T03:23:32.905Z,8.00
2019-01-19T03:24:32.894Z,8.00
2019-01-19T03:25:32.875Z,8.00
2019-01-19T03:26:32.867Z,8.00
2019-01-19T03:27:32.851Z,8.00
2019-01-19T03:28:32.835Z,8.00
2019-01-19T03:29:32.824Z,8.00
2019-01-19T03:30:32.812Z,8.00
2019-01-19T03:31:32.798Z,8.00
2019-01-19T03:32:32.793Z,8.00
2019-01-19T03:33:32.764Z,8.00
2019-01-19T03:34:32.754Z,8.00
2019-01-19T03:35:32.742Z,8.00
2019-01-19T03:36:32.725Z,8.00
2019-01-19T03:37:32.711Z,8.00
2019-01-19T03:38:32.699Z,8.00
2019-01-19T03:39:32.684Z,8.00
2019-01-19T03:40:32.673Z,8.00
2019-01-19T03:41:32.656Z,8.00
2019-01-19T03:42:32.642Z,8.00
2019-01-19T03:43:32.631Z,8.00
2019-01-19T03:44:32.613Z,8.00
2019-01-19T03:45:32.597Z,8.00
2019-01-19T03:46:32.586Z,8.00
2019-01-19T03:47:32.574Z,8.00
2019-01-19T03:48:32.556Z,8.00
2019-01-19T03:49:32.541Z,8.00
2019-01-19T03:50:32.529Z,8.00
2019-01-19T03:51:32.513Z,8.00
2019-01-19T03:52:32.500Z,8.00
2019-01-19T03:53:32.483Z,8.00
2019-01-19T03:54:32.628Z,8.00
2019-01-19T03:55:32.463Z,8.00
2019-01-19T03:56:32.446Z,8.00
2019-01-19T03:57:32.428Z,8.00
2019-01-19T03:58:32.413Z,8.00
2019-01-19T03:59:32.399Z,8.00
2019-01-19T04:00:32.385Z,8.00
2019-01-19T04:01:32.371Z,8.00
2019-01-19T04:02:32.358Z,8.00
2019-01-19T04:03:32.349Z,8.00
2019-01-19T04:04:32.327Z,8.00
2019-01-19T04:05:32.315Z,8.00
2019-01-19T04:06:32.304Z,8.00
2019-01-19T04:07:32.287Z,8.00
2019-01-19T04:08:32.274Z,8.00
2019-01-19T04:09:32.265Z,8.00
2019-01-19T04:10:32.246Z,8.00
2019-01-19T04:11:32.232Z,8.00
2019-01-19T04:12:32.219Z,8.00
2019-01-19T04:13:32.212Z,8.00
2019-01-19T04:14:32.189Z,8.00
2019-01-19T04:15:32.175Z,8.00
2019-01-19T04:16:32.162Z,8.00
2019-01-19T04:17:32.149Z,8.00
2019-01-19T04:18:33.102Z,8.00
2019-01-19T04:19:32.120Z,8.00
2019-01-19T04:20:32.108Z,8.00
2019-01-19T04:21:32.100Z,8.00
2019-01-19T04:22:32.080Z,8.00
2019-01-19T04:23:32.062Z,8.00
2019-01-19T04:24:32.048Z,8.00
2019-01-19T04:25:32.033Z,8.00
2019-01-19T04:26:32.021Z,8.00
2019-01-19T04:27:32.009Z,8.00
2019-01-19T04:28:31.994Z,8.00
2019-01-19T04:29:31.985Z,8.00
2019-01-19T04:30:31.965Z,8.00
2019-01-19T04:31:31.953Z,8.00
2019-01-19T04:32:31.941Z,8.00
2019-01-19T04:33:31.927Z,8.00
2019-01-19T04:34:31.909Z,8.00
2019-01-19T04:35:31.896Z,8.00
2019-01-19T04:36:31.884Z,8.00
2019-01-19T04:37:31.866Z,8.00
2019-01-19T04:38:31.854Z,8.00
2019-01-19T04:39:31.839Z,8.00
2019-01-19T04:40:31.823Z,8.00
2019-01-19T04:41:31.812Z,8.00
2019-01-19T04:42:31.801Z,8.00
2019-01-19T04:43:31.783Z,8.00
2019-01-19T04:44:31.770Z,8.00
2019-01-19T04:45:31.757Z,8.00
2019-01-19T04:46:31.738Z,8.00
2019-01-19T04:47:31.729Z,8.00
2019-01-19T04:48:31.712Z,8.00
2019-01-19T04:49:31.704Z,8.00
2019-01-19T04:50:31.684Z,8.00
2019-01-19T04:51:31.675Z,8.00
2019-01-19T04:52:31.660Z,8.00
2019-01-19T04:53:31.647Z,8.00
2019-01-19T04:54:31.633Z,8.00
2019-01-19T04:55:31.614Z,8.00
2019-01-19T04:56:31.602Z,8.00
2019-01-19T04:57:31.589Z,8.00
2019-01-19T04:58:31.576Z,8.00
2019-01-19T04:59:31.562Z,8.00
2019-01-19T05:00:31.545Z,8.00
2019-01-19T05:01:31.532Z,8.00
2019-01-19T05:02:31.520Z,8.00
2019-01-19T05:03:31.509Z,8.00
2019-01-19T05:04:31.491Z,8.00
2019-01-19T05:05:31.480Z,8.00
2019-01-19T05:06:31.465Z,8.00
2019-01-19T05:07:31.449Z,8.00
2019-01-19T05:08:31.439Z,8.00
2019-01-19T05:09:31.421Z,8.00
2019-01-19T05:10:31.410Z,8.00
2019-01-19T05:11:31.395Z,8.00
2019-01-19T05:12:31.382Z,8.00
2019-01-19T05:13:31.370Z,8.00
2019-01-19T05:14:31.353Z,8.00
2019-01-19T05:15:31.338Z,8.00
2019-01-19T05:16:31.322Z,8.00
2019-01-19T05:17:31.309Z,8.00
2019-01-19T05:18:31.297Z,8.00
2019-01-19T05:19:31.283Z,8.00
2019-01-19T05:20:31.270Z,8.00
2019-01-19T05:21:31.270Z,8.00
2019-01-19T05:22:31.241Z,8.00
2019-01-19T05:23:31.227Z,8.00
2019-01-19T05:24:31.214Z,8.00
2019-01-19T05:25:31.195Z,8.00
2019-01-19T05:26:31.190Z,8.00
2019-01-19T05:27:31.170Z,8.00
2019-01-19T05:28:31.156Z,8.00
2019-01-19T05:29:31.142Z,8.00
2019-01-19T05:30:31.127Z,8.00
2019-01-19T05:31:31.123Z,8.00
2019-01-19T05:32:31.101Z,8.00
2019-01-19T05:33:31.085Z,8.00
2019-01-19T05:34:31.073Z,8.00
2019-01-19T05:35:31.056Z,8.00
2019-01-19T05:36:38.016Z,8.00
2019-01-19T05:37:31.033Z,8.00
2019-01-19T05:38:31.018Z,8.00
2019-01-19T05:39:31.002Z,8.00
2019-01-19T05:40:30.984Z,8.00
2019-01-19T05:41:30.973Z,8.00
2019-01-19T05:42:30.961Z,8.00
2019-01-19T05:43:30.952Z,8.00
2019-01-19T05:44:30.935Z,8.00
2019-01-19T05:45:30.924Z,8.00
2019-01-19T05:46:30.913Z,8.00
2019-01-19T05:47:30.898Z,8.00
2019-01-19T05:48:30.876Z,8.00
2019-01-19T05:49:30.864Z,8.00
2019-01-19T05:50:30.847Z,8.00
2019-01-19T05:51:30.834Z,8.00
2019-01-19T05:52:30.818Z,8.00
2019-01-19T05:53:30.806Z,8.00
2019-01-19T05:54:30.791Z,8.00
2019-01-19T05:55:30.779Z,8.00
2019-01-19T05:56:30.761Z,8.00
2019-01-19T05:57:30.752Z,8.00
2019-01-19T05:58:30.738Z,8.00
2019-01-19T05:59:30.720Z,8.00
2019-01-19T06:00:30.701Z,4.00
2019-01-19T06:01:30.696Z,8.00
2019-01-19T06:02:30.685Z,8.00
2019-01-19T06:03:30.665Z,8.00
2019-01-19T06:04:30.649Z,8.00
2019-01-19T06:05:30.635Z,8.00
2019-01-19T06:06:30.621Z,8.00
2019-01-19T06:07:30.609Z,8.00
2019-01-19T06:08:30.590Z,8.00
2019-01-19T06:09:30.578Z,8.00
2019-01-19T06:10:30.598Z,8.00
2019-01-19T06:11:30.550Z,8.00
2019-01-19T06:12:30.547Z,8.00
2019-01-19T06:13:30.522Z,8.00
2019-01-19T06:14:30.504Z,8.00
2019-01-19T06:15:30.494Z,8.00
2019-01-19T06:16:30.478Z,8.00
2019-01-19T06:17:30.464Z,8.00
2019-01-19T06:18:30.450Z,8.00
2019-01-19T06:19:30.436Z,8.00
2019-01-19T06:20:30.415Z,8.00
2019-01-19T06:21:30.406Z,8.00
2019-01-19T06:22:30.397Z,8.00
2019-01-19T06:23:30.376Z,8.00
2019-01-19T06:24:30.364Z,8.00
2019-01-19T06:25:30.347Z,8.00
2019-01-19T06:26:30.333Z,8.00
2019-01-19T06:27:30.321Z,8.00
2019-01-19T06:28:30.306Z,8.00
2019-01-19T06:29:30.291Z,8.00
2019-01-19T06:30:30.276Z,8.00
2019-01-19T06:31:30.262Z,8.00
2019-01-19T06:32:30.246Z,8.00
2019-01-19T06:33:30.236Z,8.00
2019-01-19T06:34:30.219Z,12.00
2019-01-19T06:35:30.204Z,12.00
2019-01-19T06:36:30.193Z,12.00
2019-01-19T06:37:30.175Z,12.00
2019-01-19T06:38:30.162Z,8.00
2019-01-19T06:39:30.150Z,8.00
2019-01-19T06:40:30.132Z,8.00
2019-01-19T06:41:30.115Z,12.00
2019-01-19T06:42:30.103Z,12.00
2019-01-19T06:43:30.090Z,12.00
2019-01-19T06:44:30.073Z,12.00
2019-01-19T06:45:30.060Z,12.00
2019-01-19T06:46:30.049Z,8.00
2019-01-19T06:47:30.030Z,8.00
2019-01-19T06:48:30.015Z,12.00
2019-01-19T06:49:30.002Z,8.00
2019-01-19T06:50:29.986Z,12.00
2019-01-19T06:51:29.979Z,12.00
2019-01-19T06:52:29.956Z,12.00
2019-01-19T06:53:29.943Z,16.00
2019-01-19T06:54:29.929Z,20.00
2019-01-19T06:55:29.915Z,20.00
2019-01-19T06:56:29.916Z,20.00
2019-01-19T06:57:29.883Z,24.00
2019-01-19T06:58:31.233Z,24.00
2019-01-19T06:59:29.890Z,28.00
2019-01-19T07:00:29.840Z,32.00
2019-01-19T07:01:29.833Z,36.00
2019-01-19T07:02:29.811Z,36.00
2019-01-19T07:03:29.798Z,40.00
2019-01-19T07:04:29.777Z,40.00
2019-01-19T07:05:29.763Z,48.00
2019-01-19T07:06:29.763Z,52.00
2019-01-19T07:07:29.744Z,56.00
2019-01-19T07:08:29.730Z,60.00
2019-01-19T07:09:29.707Z,64.00
2019-01-19T07:10:29.692Z,68.00
2019-01-19T07:11:29.682Z,72.00
2019-01-19T07:12:29.681Z,80.00
2019-01-19T07:13:29.652Z,88.00
2019-01-19T07:14:29.638Z,92.00
2019-01-19T07:15:29.624Z,100.00
2019-01-19T07:16:29.603Z,108.00
2019-01-19T07:17:29.594Z,116.00
2019-01-19T07:18:29.577Z,120.00
2019-01-19T07:19:29.564Z,128.00
2019-01-19T07:20:30.996Z,136.00
2019-01-19T07:21:29.533Z,144.00
2019-01-19T07:22:29.521Z,152.00
2019-01-19T07:23:29.507Z,164.00
2019-01-19T07:24:29.494Z,168.00
2019-01-19T07:25:29.476Z,180.00
2019-01-19T07:26:29.484Z,188.00
2019-01-19T07:27:29.449Z,196.00
2019-01-19T07:28:29.434Z,208.00
2019-01-19T07:29:29.420Z,216.00
2019-01-19T07:30:29.404Z,224.00
2019-01-19T07:31:29.393Z,236.00
2019-01-19T07:32:29.377Z,248.00
2019-01-19T07:33:29.360Z,260.00
2019-01-19T07:34:29.349Z,268.00
2019-01-19T07:35:29.334Z,280.00
2019-01-19T07:36:29.322Z,288.00
2019-01-19T07:37:29.306Z,296.00
2019-01-19T07:38:29.328Z,304.00
2019-01-19T07:39:29.275Z,312.00
2019-01-19T07:40:29.264Z,324.00
2019-01-19T07:41:29.247Z,328.00
2019-01-19T07:42:29.235Z,340.00
2019-01-19T07:43:29.222Z,344.00
2019-01-19T07:44:29.203Z,352.00
2019-01-19T07:45:29.196Z,364.00
2019-01-19T07:46:29.177Z,372.00
2019-01-19T07:47:29.165Z,384.00
2019-01-19T07:48:29.148Z,396.00
2019-01-19T07:49:29.133Z,408.00
2019-01-19T07:50:29.123Z,420.00
2019-01-19T07:51:29.106Z,428.00
2019-01-19T07:52:29.090Z,428.00
2019-01-19T07:53:29.078Z,436.00
2019-01-19T07:54:29.063Z,448.00
2019-01-19T07:55:29.069Z,460.00
2019-01-19T07:56:29.034Z,464.00
2019-01-19T07:57:31.482Z,468.00
2019-01-19T07:58:29.005Z,472.00
2019-01-19T07:59:28.988Z,472.00
2019-01-19T08:00:28.974Z,480.00
2019-01-19T08:01:28.960Z,484.00
2019-01-19T08:02:28.948Z,488.00
2019-01-19T08:03:28.930Z,492.00
2019-01-19T08:04:28.919Z,500.00
2019-01-19T08:05:28.903Z,508.00
2019-01-19T08:06:28.889Z,520.00
2019-01-19T08:07:28.872Z,528.00
2019-01-19T08:08:28.859Z,536.00
2019-01-19T08:09:28.842Z,548.00
2019-01-19T08:10:28.824Z,560.00
2019-01-19T08:11:28.816Z,576.00
2019-01-19T08:12:28.798Z,580.00
2019-01-19T08:13:28.787Z,596.00
2019-01-19T08:14:28.780Z,608.00
2019-01-19T08:15:29.514Z,620.00
2019-01-19T08:16:28.747Z,632.00
2019-01-19T08:17:28.728Z,648.00
2019-01-19T08:18:28.712Z,668.00
2019-01-19T08:19:28.699Z,680.00
2019-01-19T08:20:28.690Z,692.00
2019-01-19T08:21:28.669Z,704.00
2019-01-19T08:22:28.658Z,720.00
2019-01-19T08:23:28.639Z,732.00
2019-01-19T08:24:28.625Z,748.00
2019-01-19T08:25:28.611Z,764.00
2019-01-19T08:26:28.597Z,776.00
2019-01-19T08:27:28.590Z,792.00
2019-01-19T08:28:28.569Z,804.00
2019-01-19T08:29:28.552Z,816.00
2019-01-19T08:30:28.537Z,832.00
2019-01-19T08:31:28.524Z,844.00
2019-01-19T08:32:28.514Z,856.00
2019-01-19T08:33:28.497Z,868.00
2019-01-19T08:34:28.485Z,880.00
2019-01-19T08:35:28.636Z,888.00
2019-01-19T08:36:28.450Z,896.00
2019-01-19T08:37:28.438Z,912.00
2019-01-19T08:38:28.422Z,924.00
2019-01-19T08:39:28.415Z,936.00
2019-01-19T08:40:28.396Z,952.00
2019-01-19T08:41:28.380Z,956.00
2019-01-19T08:42:28.368Z,968.00
2019-01-19T08:43:28.352Z,980.00
2019-01-19T08:44:28.338Z,996.00
2019-01-19T08:45:28.326Z,1004.00
2019-01-19T08:46:28.310Z,1016.00
2019-01-19T08:47:28.295Z,1020.00
2019-01-19T08:48:28.279Z,1024.00
2019-01-19T08:49:28.274Z,1032.00
2019-01-19T08:50:28.250Z,1028.00
2019-01-19T08:51:28.237Z,1032.00
2019-01-19T08:52:28.223Z,1036.00
2019-01-19T08:53:28.210Z,1040.00
2019-01-19T08:54:28.207Z,1036.00
2019-01-19T08:55:28.178Z,1040.00
2019-01-19T08:56:28.166Z,1036.00
2019-01-19T08:57:28.155Z,1032.00
2019-01-19T08:58:28.141Z,1028.00
2019-01-19T08:59:28.124Z,1032.00
2019-01-19T09:00:28.110Z,1028.00
2019-01-19T09:01:28.095Z,1028.00
2019-01-19T09:02:28.094Z,1020.00
2019-01-19T09:03:28.070Z,1012.00
2019-01-19T09:04:28.055Z,1008.00
2019-01-19T09:05:28.038Z,1004.00
2019-01-19T09:06:28.026Z,1000.00
2019-01-19T09:07:33.734Z,996.00
2019-01-19T09:08:27.998Z,992.00
2019-01-19T09:09:27.983Z,988.00
2019-01-19T09:10:27.971Z,988.00
2019-01-19T09:11:27.958Z,980.00
2019-01-19T09:12:27.940Z,976.00
2019-01-19T09:13:27.929Z,972.00
2019-01-19T09:14:27.916Z,968.00
2019-01-19T09:15:27.898Z,968.00
2019-01-19T09:16:27.886Z,964.00
2019-01-19T09:17:27.870Z,964.00
2019-01-19T09:18:27.864Z,960.00
2019-01-19T09:19:27.846Z,964.00
2019-01-19T09:20:27.828Z,972.00
2019-01-19T09:21:27.818Z,980.00
2019-01-19T09:22:27.803Z,984.00
2019-01-19T09:23:27.789Z,988.00
2019-01-19T09:24:27.773Z,992.00
2019-01-19T09:25:27.759Z,988.00
2019-01-19T09:26:27.773Z,988.00
2019-01-19T09:27:27.734Z,996.00
2019-01-19T09:28:27.722Z,1000.00
2019-01-19T09:29:27.707Z,1004.00
2019-01-19T09:30:27.691Z,1004.00
2019-01-19T09:31:27.696Z,1008.00
2019-01-19T09:32:27.666Z,1012.00
2019-01-19T09:33:27.645Z,1016.00
2019-01-19T09:34:27.686Z,1016.00
2019-01-19T09:35:27.624Z,1016.00
2019-01-19T09:36:27.612Z,1012.00
2019-01-19T09:37:27.602Z,1016.00
2019-01-19T09:38:27.585Z,1012.00
2019-01-19T09:39:27.648Z,1012.00
2019-01-19T09:40:27.557Z,1004.00
2019-01-19T09:41:27.546Z,1000.00
2019-01-19T09:42:27.533Z,996.00
2019-01-19T09:43:27.515Z,992.00
2019-01-19T09:44:27.502Z,988.00
2019-01-19T09:45:27.487Z,988.00
2019-01-19T09:46:27.474Z,984.00
2019-01-19T09:47:27.462Z,976.00
2019-01-19T09:48:27.449Z,972.00
2019-01-19T09:49:27.434Z,972.00
2019-01-19T09:50:27.423Z,972.00
2019-01-19T09:51:27.459Z,968.00
2019-01-19T09:52:27.398Z,968.00
2019-01-19T09:53:27.380Z,964.00
2019-01-19T09:54:27.373Z,968.00
2019-01-19T09:55:27.356Z,968.00
2019-01-19T09:56:27.342Z,972.00
2019-01-19T09:57:27.328Z,972.00
2019-01-19T09:58:27.316Z,972.00
2019-01-19T09:59:27.347Z,972.00
2019-01-19T10:00:27.289Z,972.00
2019-01-19T10:01:27.277Z,972.00
2019-01-19T10:02:27.261Z,972.00
2019-01-19T10:03:27.246Z,968.00
2019-01-19T10:04:27.236Z,972.00
2019-01-19T10:05:27.220Z,972.00
2019-01-19T10:06:27.228Z,972.00
2019-01-19T10:07:27.194Z,976.00
2019-01-19T10:08:27.182Z,980.00
2019-01-19T10:09:27.186Z,980.00
2019-01-19T10:10:27.157Z,980.00
2019-01-19T10:11:27.152Z,984.00
2019-01-19T10:12:27.129Z,984.00
2019-01-19T10:13:27.116Z,984.00
2019-01-19T10:14:27.103Z,980.00
2019-01-19T10:15:27.089Z,980.00
2019-01-19T10:16:27.281Z,976.00
2019-01-19T10:17:27.103Z,980.00
2019-01-19T10:18:27.074Z,984.00
2019-01-19T10:19:27.302Z,980.00
2019-01-19T10:20:27.098Z,980.00
2019-01-19T10:21:27.121Z,984.00
2019-01-19T10:22:27.269Z,980.00
2019-01-19T10:23:27.157Z,984.00
2019-01-19T10:24:27.053Z,984.00
2019-01-19T10:25:27.056Z,980.00
2019-01-19T10:26:26.948Z,976.00
2019-01-19T10:27:26.953Z,980.00
2019-01-19T10:28:26.958Z,980.00
2019-01-19T10:29:27.058Z,976.00
2019-01-19T10:30:27.040Z,972.00
2019-01-19T10:31:26.888Z,972.00
2019-01-19T10:32:26.899Z,968.00
2019-01-19T10:33:27.052Z,964.00
2019-01-19T10:34:26.950Z,956.00
2019-01-19T10:35:26.871Z,956.00
2019-01-19T10:36:26.821Z,948.00
2019-01-19T10:37:26.803Z,944.00
2019-01-19T10:38:26.790Z,940.00
2019-01-19T10:39:26.778Z,936.00
2019-01-19T10:40:26.762Z,932.00
2019-01-19T10:41:26.751Z,924.00
2019-01-19T10:42:26.740Z,916.00
2019-01-19T10:43:26.725Z,912.00
2019-01-19T10:44:26.712Z,904.00
2019-01-19T10:45:26.697Z,896.00
2019-01-19T10:46:26.689Z,892.00
2019-01-19T10:47:26.674Z,888.00
2019-01-19T10:48:26.660Z,888.00
2019-01-19T10:49:26.648Z,888.00
2019-01-19T10:50:26.638Z,884.00
2019-01-19T10:51:26.621Z,884.00
2019-01-19T10:52:26.609Z,880.00
2019-01-19T10:53:26.594Z,876.00
2019-01-19T10:54:26.583Z,868.00
2019-01-19T10:55:26.567Z,868.00
2019-01-19T10:56:26.555Z,868.00
2019-01-19T10:57:26.541Z,864.00
2019-01-19T10:58:26.562Z,860.00
2019-01-19T10:59:26.525Z,864.00
2019-01-19T11:00:26.501Z,864.00
2019-01-19T11:01:26.490Z,864.00
2019-01-19T11:02:26.542Z,864.00
2019-01-19T11:03:26.629Z,864.00
2019-01-19T11:04:26.451Z,872.00
2019-01-19T11:05:26.439Z,876.00
2019-01-19T11:06:26.425Z,880.00
2019-01-19T11:07:26.413Z,880.00
2019-01-19T11:08:26.402Z,880.00
2019-01-19T11:09:26.396Z,876.00
2019-01-19T11:10:26.377Z,884.00
2019-01-19T11:11:26.366Z,880.00
2019-01-19T11:12:26.346Z,876.00
2019-01-19T11:13:26.671Z,884.00
2019-01-19T11:14:26.323Z,884.00
2019-01-19T11:15:26.313Z,884.00
2019-01-19T11:16:26.304Z,884.00
2019-01-19T11:17:26.794Z,884.00
2019-01-19T11:18:26.275Z,888.00
2019-01-19T11:19:26.261Z,888.00
2019-01-19T11:20:26.250Z,896.00
2019-01-19T11:21:26.521Z,892.00
2019-01-19T11:22:26.233Z,892.00
2019-01-19T11:23:26.214Z,880.00
2019-01-19T11:24:26.197Z,888.00
2019-01-19T11:25:26.188Z,892.00
2019-01-19T11:26:26.176Z,892.00
2019-01-19T11:27:26.161Z,880.00
2019-01-19T11:28:26.147Z,892.00
2019-01-19T11:29:26.134Z,892.00
2019-01-19T11:30:26.172Z,892.00
2019-01-19T11:31:26.172Z,896.00
2019-01-19T11:32:26.100Z,900.00
2019-01-19T11:33:26.089Z,900.00
2019-01-19T11:34:26.073Z,896.00
2019-01-19T11:35:26.064Z,888.00
2019-01-19T11:36:26.055Z,892.00
2019-01-19T11:37:26.040Z,864.00
2019-01-19T11:38:26.130Z,880.00
2019-01-19T11:39:26.016Z,884.00
2019-01-19T11:40:25.996Z,880.00
2019-01-19T11:41:25.991Z,888.00
2019-01-19T11:42:25.977Z,884.00
2019-01-19T11:43:26.018Z,884.00
2019-01-19T11:44:25.951Z,884.00
2019-01-19T11:45:25.939Z,884.00
2019-01-19T11:46:26.169Z,888.00
2019-01-19T11:47:25.912Z,888.00
2019-01-19T11:48:25.903Z,888.00
2019-01-19T11:49:25.887Z,884.00
2019-01-19T11:50:26.240Z,884.00
2019-01-19T11:51:25.896Z,872.00
2019-01-19T11:52:25.856Z,876.00
2019-01-19T11:53:25.841Z,876.00
2019-01-19T11:54:25.829Z,876.00
2019-01-19T11:55:25.825Z,868.00
2019-01-19T11:56:25.803Z,860.00
2019-01-19T11:57:25.795Z,872.00
2019-01-19T11:58:25.781Z,864.00
2019-01-19T11:59:26.529Z,856.00
2019-01-19T12:00:26.549Z,872.00
2019-01-19T12:01:25.780Z,860.00
2019-01-19T12:02:26.549Z,876.00
2019-01-19T12:03:27.512Z,876.00
2019-01-19T12:04:25.759Z,868.00
2019-01-19T12:05:25.747Z,872.00
2019-01-19T12:06:25.768Z,880.00
2019-01-19T12:07:25.723Z,880.00
2019-01-19T12:08:25.679Z,880.00
2019-01-19T12:09:25.682Z,888.00
2019-01-19T12:10:25.685Z,892.00
2019-01-19T12:11:25.638Z,892.00
2019-01-19T12:12:26.510Z,896.00
2019-01-19T12:13:25.640Z,896.00
2019-01-19T12:14:25.651Z,896.00
2019-01-19T12:15:26.550Z,904.00
2019-01-19T12:16:25.583Z,908.00
2019-01-19T12:17:25.594Z,908.00
2019-01-19T12:18:25.602Z,916.00
2019-01-19T12:19:25.576Z,904.00
2019-01-19T12:20:25.573Z,924.00
2019-01-19T12:21:26.522Z,928.00
2019-01-19T12:22:25.560Z,928.00
2019-01-19T12:23:25.544Z,932.00
2019-01-19T12:24:26.026Z,936.00
2019-01-19T12:25:25.516Z,924.00
2019-01-19T12:26:25.504Z,920.00
2019-01-19T12:27:25.508Z,944.00
2019-01-19T12:28:25.429Z,948.00
2019-01-19T12:29:25.418Z,944.00
2019-01-19T12:30:25.424Z,932.00
2019-01-19T12:31:25.426Z,936.00
2019-01-19T12:32:25.429Z,932.00
2019-01-19T12:33:25.381Z,920.00
2019-01-19T12:34:25.393Z,932.00
2019-01-19T12:35:25.403Z,920.00
2019-01-19T12:36:25.339Z,928.00
2019-01-19T12:37:25.332Z,932.00
2019-01-19T12:38:26.979Z,940.00
2019-01-19T12:39:25.317Z,944.00
2019-01-19T12:40:25.290Z,948.00
2019-01-19T12:41:25.275Z,936.00
2019-01-19T12:42:25.268Z,964.00
2019-01-19T12:43:25.263Z,972.00
2019-01-19T12:44:25.244Z,984.00
2019-01-19T12:45:25.251Z,996.00
2019-01-19T12:46:25.222Z,1000.00
2019-01-19T12:47:25.210Z,1008.00
2019-01-19T12:48:25.198Z,1020.00
2019-01-19T12:49:25.215Z,1028.00
2019-01-19T12:50:25.178Z,1028.00
2019-01-19T12:51:25.170Z,1036.00
2019-01-19T12:52:25.155Z,1036.00
2019-01-19T12:53:25.148Z,1040.00